sensor_id;sensor_type;location;lat;lon;timestamp;temperature;humidity
20815;DHT22;10568;48.176;16.316;2023-03-15T00:00:27;8.00;99.90
20815;DHT22;10568;48.176;16.316;2023-03-15T00:02:53;8.00;99.90
20815;DHT22;10568;48.176;16.316;2023-03-15T00:05:18;8.00;99.90
20815;DHT22;10568;48.176;16.316;2023-03-15T00:07:44;8.00;99.90
20815;DHT22;10568;48.176;16.316;2023-03-15T00:10:10;8.00;99.90
20815;DHT22;10568;48.176;16.316;2023-03-15T00:12:36;8.00;99.90
20815;DHT22;10568;48.176;16.316;2023-03-15T00:15:01;8.00;99.90
20815;DHT22;10568;48.176;16.316;2023-03-15T00:17:27;8.00;99.90
20815;DHT22;10568;48.176;16.316;2023-03-15T00:19:53;8.00;99.90
20815;DHT22;10568;48.176;16.316;2023-03-15T00:22:18;8.00;99.90
20815;DHT22;10568;48.176;16.316;2023-03-15T00:24:44;8.00;99.90
20815;DHT22;10568;48.176;16.316;2023-03-15T00:27:10;8.00;99.90
20815;DHT22;10568;48.176;16.316;2023-03-15T00:29:35;8.00;99.90
20815;DHT22;10568;48.176;16.316;2023-03-15T00:32:01;8.00;99.90
20815;DHT22;10568;48.176;16.316;2023-03-15T00:34:27;8.00;99.90
20815;DHT22;10568;48.176;16.316;2023-03-15T00:36:52;8.00;99.90
20815;DHT22;10568;48.176;16.316;2023-03-15T00:39:19;8.00;99.90
20815;DHT22;10568;48.176;16.316;2023-03-15T00:41:45;8.00;99.90
20815;DHT22;10568;48.176;16.316;2023-03-15T00:44:11;8.00;99.90
20815;DHT22;10568;48.176;16.316;2023-03-15T00:46:37;8.10;99.90
20815;DHT22;10568;48.176;16.316;2023-03-15T00:49:03;8.10;99.90
20815;DHT22;10568;48.176;16.316;2023-03-15T00:51:29;8.10;99.90
20815;DHT22;10568;48.176;16.316;2023-03-15T00:53:55;8.00;99.90
20815;DHT22;10568;48.176;16.316;2023-03-15T00:56:22;8.00;99.90
20815;DHT22;10568;48.176;16.316;2023-03-15T00:58:49;8.00;99.90
20815;DHT22;10568;48.176;16.316;2023-03-15T01:01:17;8.00;99.90
20815;DHT22;10568;48.176;16.316;2023-03-15T01:03:44;8.00;99.90
20815;DHT22;10568;48.176;16.316;2023-03-15T01:06:13;8.00;99.90
20815;DHT22;10568;48.176;16.316;2023-03-15T01:08:39;8.00;99.90
20815;DHT22;10568;48.176;16.316;2023-03-15T01:11:11;8.00;99.90
20815;DHT22;10568;48.176;16.316;2023-03-15T01:13:37;8.00;99.90
20815;DHT22;10568;48.176;16.316;2023-03-15T01:16:04;8.00;99.90
20815;DHT22;10568;48.176;16.316;2023-03-15T01:18:30;8.00;99.90
20815;DHT22;10568;48.176;16.316;2023-03-15T01:20:56;8.00;99.90
20815;DHT22;10568;48.176;16.316;2023-03-15T01:23:22;7.90;99.90
20815;DHT22;10568;48.176;16.316;2023-03-15T01:25:47;7.90;99.90
20815;DHT22;10568;48.176;16.316;2023-03-15T01:28:13;7.90;99.90
20815;DHT22;10568;48.176;16.316;2023-03-15T01:30:38;7.90;99.90
20815;DHT22;10568;48.176;16.316;2023-03-15T01:33:04;7.90;99.90
20815;DHT22;10568;48.176;16.316;2023-03-15T01:35:30;7.90;99.90
20815;DHT22;10568;48.176;16.316;2023-03-15T01:37:56;7.90;99.90
20815;DHT22;10568;48.176;16.316;2023-03-15T01:40:21;7.90;99.90
20815;DHT22;10568;48.176;16.316;2023-03-15T01:42:52;7.80;99.90
20815;DHT22;10568;48.176;16.316;2023-03-15T01:48:48;7.70;99.90
20815;DHT22;10568;48.176;16.316;2023-03-15T01:54:15;7.50;99.90
20815;DHT22;10568;48.176;16.316;2023-03-15T02:00:04;7.30;99.90
20815;DHT22;10568;48.176;16.316;2023-03-15T02:02:35;7.10;99.90
20815;DHT22;10568;48.176;16.316;2023-03-15T02:05:06;6.90;99.90
20815;DHT22;10568;48.176;16.316;2023-03-15T02:07:35;6.90;99.90
20815;DHT22;10568;48.176;16.316;2023-03-15T02:10:07;6.80;99.90
20815;DHT22;10568;48.176;16.316;2023-03-15T02:12:40;6.70;99.90
20815;DHT22;10568;48.176;16.316;2023-03-15T02:15:08;6.60;99.90
20815;DHT22;10568;48.176;16.316;2023-03-15T02:17:40;6.50;99.90
20815;DHT22;10568;48.176;16.316;2023-03-15T02:22:53;6.40;99.90
20815;DHT22;10568;48.176;16.316;2023-03-15T02:28:14;6.20;99.90
20815;DHT22;10568;48.176;16.316;2023-03-15T02:30:40;6.10;99.90
20815;DHT22;10568;48.176;16.316;2023-03-15T02:33:12;6.00;99.90
20815;DHT22;10568;48.176;16.316;2023-03-15T02:35:39;6.00;99.90
20815;DHT22;10568;48.176;16.316;2023-03-15T02:38:05;6.00;99.90
20815;DHT22;10568;48.176;16.316;2023-03-15T02:40:31;5.90;99.90
20815;DHT22;10568;48.176;16.316;2023-03-15T02:43:00;5.80;99.90
20815;DHT22;10568;48.176;16.316;2023-03-15T02:45:28;5.80;99.90
20815;DHT22;10568;48.176;16.316;2023-03-15T02:47:56;5.80;99.90
20815;DHT22;10568;48.176;16.316;2023-03-15T02:50:22;5.70;99.90
20815;DHT22;10568;48.176;16.316;2023-03-15T02:52:48;5.70;99.90
20815;DHT22;10568;48.176;16.316;2023-03-15T02:55:14;5.60;99.90
20815;DHT22;10568;48.176;16.316;2023-03-15T02:57:39;5.60;99.90
20815;DHT22;10568;48.176;16.316;2023-03-15T03:00:07;5.60;99.90
20815;DHT22;10568;48.176;16.316;2023-03-15T03:02:41;5.60;99.90
20815;DHT22;10568;48.176;16.316;2023-03-15T03:05:08;5.60;99.90
20815;DHT22;10568;48.176;16.316;2023-03-15T03:07:34;5.60;99.90
20815;DHT22;10568;48.176;16.316;2023-03-15T03:10:00;5.60;99.90
20815;DHT22;10568;48.176;16.316;2023-03-15T03:12:26;5.60;99.90
20815;DHT22;10568;48.176;16.316;2023-03-15T03:14:52;5.60;99.90
20815;DHT22;10568;48.176;16.316;2023-03-15T03:17:17;5.60;99.90
20815;DHT22;10568;48.176;16.316;2023-03-15T03:19:43;5.60;99.90
20815;DHT22;10568;48.176;16.316;2023-03-15T03:22:09;5.60;99.90
20815;DHT22;10568;48.176;16.316;2023-03-15T03:24:37;5.60;99.90
20815;DHT22;10568;48.176;16.316;2023-03-15T03:27:04;5.60;99.90
20815;DHT22;10568;48.176;16.316;2023-03-15T03:29:29;5.50;99.90
20815;DHT22;10568;48.176;16.316;2023-03-15T03:31:55;5.50;99.90
20815;DHT22;10568;48.176;16.316;2023-03-15T03:34:21;5.50;99.90
20815;DHT22;10568;48.176;16.316;2023-03-15T03:36:46;5.50;99.90
20815;DHT22;10568;48.176;16.316;2023-03-15T03:39:15;5.40;99.90
20815;DHT22;10568;48.176;16.316;2023-03-15T03:41:40;5.40;99.90
20815;DHT22;10568;48.176;16.316;2023-03-15T03:44:06;5.40;99.90
20815;DHT22;10568;48.176;16.316;2023-03-15T03:46:32;5.40;99.90
20815;DHT22;10568;48.176;16.316;2023-03-15T03:48:58;5.30;99.90
20815;DHT22;10568;48.176;16.316;2023-03-15T03:51:23;5.30;99.90
20815;DHT22;10568;48.176;16.316;2023-03-15T03:53:49;5.30;99.90
20815;DHT22;10568;48.176;16.316;2023-03-15T03:56:15;5.30;99.90
20815;DHT22;10568;48.176;16.316;2023-03-15T03:58:40;5.30;99.90
20815;DHT22;10568;48.176;16.316;2023-03-15T04:01:06;5.30;99.90
20815;DHT22;10568;48.176;16.316;2023-03-15T04:03:32;5.20;99.90
20815;DHT22;10568;48.176;16.316;2023-03-15T04:05:58;5.20;99.90
20815;DHT22;10568;48.176;16.316;2023-03-15T04:08:25;5.20;99.90
20815;DHT22;10568;48.176;16.316;2023-03-15T04:10:55;5.10;99.90
20815;DHT22;10568;48.176;16.316;2023-03-15T04:13:22;5.10;99.90
20815;DHT22;10568;48.176;16.316;2023-03-15T04:15:48;5.10;99.90
20815;DHT22;10568;48.176;16.316;2023-03-15T04:18:14;5.10;99.90
20815;DHT22;10568;48.176;16.316;2023-03-15T04:20:41;5.00;99.90
20815;DHT22;10568;48.176;16.316;2023-03-15T04:23:15;5.00;99.90
20815;DHT22;10568;48.176;16.316;2023-03-15T04:25:50;5.00;99.90
20815;DHT22;10568;48.176;16.316;2023-03-15T04:28:17;5.00;99.90
20815;DHT22;10568;48.176;16.316;2023-03-15T04:30:43;4.90;99.90
20815;DHT22;10568;48.176;16.316;2023-03-15T04:33:09;4.90;99.90
20815;DHT22;10568;48.176;16.316;2023-03-15T04:35:37;4.90;99.90
20815;DHT22;10568;48.176;16.316;2023-03-15T04:38:04;4.90;99.90
20815;DHT22;10568;48.176;16.316;2023-03-15T04:40:31;4.90;99.90
20815;DHT22;10568;48.176;16.316;2023-03-15T04:43:00;4.80;99.90
20815;DHT22;10568;48.176;16.316;2023-03-15T04:45:26;4.80;99.90
20815;DHT22;10568;48.176;16.316;2023-03-15T04:47:54;4.80;99.90
20815;DHT22;10568;48.176;16.316;2023-03-15T04:50:20;4.80;99.90
20815;DHT22;10568;48.176;16.316;2023-03-15T04:52:47;4.70;99.90
20815;DHT22;10568;48.176;16.316;2023-03-15T04:55:13;4.70;99.90
20815;DHT22;10568;48.176;16.316;2023-03-15T04:57:39;4.70;99.90
20815;DHT22;10568;48.176;16.316;2023-03-15T05:00:06;4.60;99.90
20815;DHT22;10568;48.176;16.316;2023-03-15T05:02:33;4.70;99.90
20815;DHT22;10568;48.176;16.316;2023-03-15T05:04:58;4.60;99.90
20815;DHT22;10568;48.176;16.316;2023-03-15T05:07:24;4.60;99.90
20815;DHT22;10568;48.176;16.316;2023-03-15T05:09:50;4.60;99.90
20815;DHT22;10568;48.176;16.316;2023-03-15T05:12:16;4.60;99.90
20815;DHT22;10568;48.176;16.316;2023-03-15T05:14:41;4.60;99.90
20815;DHT22;10568;48.176;16.316;2023-03-15T05:17:07;4.60;99.90
20815;DHT22;10568;48.176;16.316;2023-03-15T05:19:33;4.60;99.90
20815;DHT22;10568;48.176;16.316;2023-03-15T05:22:02;4.50;99.90
20815;DHT22;10568;48.176;16.316;2023-03-15T05:24:29;4.50;99.90
20815;DHT22;10568;48.176;16.316;2023-03-15T05:26:55;4.50;99.90
20815;DHT22;10568;48.176;16.316;2023-03-15T05:29:21;4.40;99.90
20815;DHT22;10568;48.176;16.316;2023-03-15T05:31:47;4.50;99.90
20815;DHT22;10568;48.176;16.316;2023-03-15T05:34:14;4.50;99.90
20815;DHT22;10568;48.176;16.316;2023-03-15T05:36:39;4.50;99.90
20815;DHT22;10568;48.176;16.316;2023-03-15T05:39:06;4.40;99.90
20815;DHT22;10568;48.176;16.316;2023-03-15T05:41:33;4.40;99.90
20815;DHT22;10568;48.176;16.316;2023-03-15T05:43:59;4.40;99.90
20815;DHT22;10568;48.176;16.316;2023-03-15T05:46:24;4.50;99.90
20815;DHT22;10568;48.176;16.316;2023-03-15T05:48:50;4.40;99.90
20815;DHT22;10568;48.176;16.316;2023-03-15T05:51:16;4.40;99.90
20815;DHT22;10568;48.176;16.316;2023-03-15T05:53:42;4.40;99.90
20815;DHT22;10568;48.176;16.316;2023-03-15T05:56:07;4.40;99.90
20815;DHT22;10568;48.176;16.316;2023-03-15T05:58:33;4.40;99.90
20815;DHT22;10568;48.176;16.316;2023-03-15T06:01:00;4.40;99.90
20815;DHT22;10568;48.176;16.316;2023-03-15T06:03:26;4.40;99.90
20815;DHT22;10568;48.176;16.316;2023-03-15T06:05:52;4.40;99.90
20815;DHT22;10568;48.176;16.316;2023-03-15T06:08:18;4.40;99.90
20815;DHT22;10568;48.176;16.316;2023-03-15T06:10:44;4.40;99.90
20815;DHT22;10568;48.176;16.316;2023-03-15T06:13:09;4.50;99.90
20815;DHT22;10568;48.176;16.316;2023-03-15T06:15:35;4.50;99.90
20815;DHT22;10568;48.176;16.316;2023-03-15T06:18:01;4.50;99.90
20815;DHT22;10568;48.176;16.316;2023-03-15T06:20:26;4.60;99.90
20815;DHT22;10568;48.176;16.316;2023-03-15T06:22:52;4.60;99.90
20815;DHT22;10568;48.176;16.316;2023-03-15T06:25:18;4.60;99.90
20815;DHT22;10568;48.176;16.316;2023-03-15T06:27:44;4.60;99.90
20815;DHT22;10568;48.176;16.316;2023-03-15T06:30:10;4.60;99.90
20815;DHT22;10568;48.176;16.316;2023-03-15T06:32:36;4.70;99.90
20815;DHT22;10568;48.176;16.316;2023-03-15T06:35:01;4.80;99.90
20815;DHT22;10568;48.176;16.316;2023-03-15T06:37:29;4.80;99.90
20815;DHT22;10568;48.176;16.316;2023-03-15T06:39:55;4.90;99.90
20815;DHT22;10568;48.176;16.316;2023-03-15T06:42:21;5.00;99.90
20815;DHT22;10568;48.176;16.316;2023-03-15T06:44:47;5.10;99.90
20815;DHT22;10568;48.176;16.316;2023-03-15T06:47:13;5.20;99.90
20815;DHT22;10568;48.176;16.316;2023-03-15T06:49:38;5.30;99.90
20815;DHT22;10568;48.176;16.316;2023-03-15T06:52:05;5.20;99.90
20815;DHT22;10568;48.176;16.316;2023-03-15T06:54:31;5.20;99.90
20815;DHT22;10568;48.176;16.316;2023-03-15T06:56:57;5.20;99.90
20815;DHT22;10568;48.176;16.316;2023-03-15T06:59:23;5.20;99.90
20815;DHT22;10568;48.176;16.316;2023-03-15T07:01:49;5.30;99.90
20815;DHT22;10568;48.176;16.316;2023-03-15T07:04:15;5.20;99.90
20815;DHT22;10568;48.176;16.316;2023-03-15T07:06:40;5.20;99.90
20815;DHT22;10568;48.176;16.316;2023-03-15T07:09:06;5.30;99.90
20815;DHT22;10568;48.176;16.316;2023-03-15T07:11:32;5.40;99.90
20815;DHT22;10568;48.176;16.316;2023-03-15T07:13:58;5.40;99.90
20815;DHT22;10568;48.176;16.316;2023-03-15T07:16:24;5.40;99.90
20815;DHT22;10568;48.176;16.316;2023-03-15T07:18:50;5.30;99.90
20815;DHT22;10568;48.176;16.316;2023-03-15T07:21:19;5.40;99.90
20815;DHT22;10568;48.176;16.316;2023-03-15T07:23:45;5.40;99.90
20815;DHT22;10568;48.176;16.316;2023-03-15T07:26:11;5.40;99.90
20815;DHT22;10568;48.176;16.316;2023-03-15T07:28:36;5.50;99.90
20815;DHT22;10568;48.176;16.316;2023-03-15T07:31:03;5.50;99.90
20815;DHT22;10568;48.176;16.316;2023-03-15T07:33:31;5.60;99.90
20815;DHT22;10568;48.176;16.316;2023-03-15T07:35:58;5.60;99.90
20815;DHT22;10568;48.176;16.316;2023-03-15T07:38:26;5.60;99.90
20815;DHT22;10568;48.176;16.316;2023-03-15T07:40:53;5.70;99.90
20815;DHT22;10568;48.176;16.316;2023-03-15T07:43:20;5.60;99.90
20815;DHT22;10568;48.176;16.316;2023-03-15T07:45:46;5.60;99.90
20815;DHT22;10568;48.176;16.316;2023-03-15T07:48:12;5.70;99.90
20815;DHT22;10568;48.176;16.316;2023-03-15T07:50:38;5.90;99.90
20815;DHT22;10568;48.176;16.316;2023-03-15T07:53:04;6.00;99.90
20815;DHT22;10568;48.176;16.316;2023-03-15T07:55:32;6.10;99.90
20815;DHT22;10568;48.176;16.316;2023-03-15T07:57:58;6.20;99.90
20815;DHT22;10568;48.176;16.316;2023-03-15T08:00:24;6.30;99.90
20815;DHT22;10568;48.176;16.316;2023-03-15T08:02:50;6.30;99.80
20815;DHT22;10568;48.176;16.316;2023-03-15T08:05:15;6.40;99.90
20815;DHT22;10568;48.176;16.316;2023-03-15T08:07:44;6.40;99.60
20815;DHT22;10568;48.176;16.316;2023-03-15T08:10:11;6.30;99.90
20815;DHT22;10568;48.176;16.316;2023-03-15T08:12:36;6.40;99.90
20815;DHT22;10568;48.176;16.316;2023-03-15T08:15:05;6.50;99.80
20815;DHT22;10568;48.176;16.316;2023-03-15T08:17:30;6.50;99.90
20815;DHT22;10568;48.176;16.316;2023-03-15T08:19:56;6.60;99.90
20815;DHT22;10568;48.176;16.316;2023-03-15T08:22:22;6.70;99.80
20815;DHT22;10568;48.176;16.316;2023-03-15T08:24:48;6.90;99.90
20815;DHT22;10568;48.176;16.316;2023-03-15T08:27:17;7.00;99.90
20815;DHT22;10568;48.176;16.316;2023-03-15T08:29:43;7.30;99.90
20815;DHT22;10568;48.176;16.316;2023-03-15T08:32:09;7.40;99.40
20815;DHT22;10568;48.176;16.316;2023-03-15T08:34:35;7.50;98.30
20815;DHT22;10568;48.176;16.316;2023-03-15T08:37:00;7.60;99.10
20815;DHT22;10568;48.176;16.316;2023-03-15T08:39:26;7.50;98.40
20815;DHT22;10568;48.176;16.316;2023-03-15T08:41:52;7.40;97.60
20815;DHT22;10568;48.176;16.316;2023-03-15T08:44:18;7.60;98.20
20815;DHT22;10568;48.176;16.316;2023-03-15T08:46:43;7.60;98.10
20815;DHT22;10568;48.176;16.316;2023-03-15T08:49:09;7.70;97.80
20815;DHT22;10568;48.176;16.316;2023-03-15T08:51:35;7.80;96.50
20815;DHT22;10568;48.176;16.316;2023-03-15T08:54:29;7.70;97.20
20815;DHT22;10568;48.176;16.316;2023-03-15T08:56:55;7.70;95.80
20815;DHT22;10568;48.176;16.316;2023-03-15T08:59:21;7.90;95.20
20815;DHT22;10568;48.176;16.316;2023-03-15T09:01:47;7.80;95.10
20815;DHT22;10568;48.176;16.316;2023-03-15T09:04:12;7.80;95.30
20815;DHT22;10568;48.176;16.316;2023-03-15T09:06:38;8.00;96.40
20815;DHT22;10568;48.176;16.316;2023-03-15T09:09:04;8.20;96.10
20815;DHT22;10568;48.176;16.316;2023-03-15T09:11:30;8.40;94.40
20815;DHT22;10568;48.176;16.316;2023-03-15T09:13:56;8.30;94.10
20815;DHT22;10568;48.176;16.316;2023-03-15T09:16:21;8.60;95.00
20815;DHT22;10568;48.176;16.316;2023-03-15T09:18:47;8.90;94.50
20815;DHT22;10568;48.176;16.316;2023-03-15T09:21:13;8.80;94.30
20815;DHT22;10568;48.176;16.316;2023-03-15T09:23:38;8.80;93.40
20815;DHT22;10568;48.176;16.316;2023-03-15T09:26:04;9.10;94.60
20815;DHT22;10568;48.176;16.316;2023-03-15T09:28:30;9.10;95.10
20815;DHT22;10568;48.176;16.316;2023-03-15T09:30:56;9.20;94.00
20815;DHT22;10568;48.176;16.316;2023-03-15T09:33:21;9.30;95.00
20815;DHT22;10568;48.176;16.316;2023-03-15T09:35:53;9.50;94.40
20815;DHT22;10568;48.176;16.316;2023-03-15T09:38:19;8.80;92.50
20815;DHT22;10568;48.176;16.316;2023-03-15T09:40:44;8.50;92.90
20815;DHT22;10568;48.176;16.316;2023-03-15T09:46:26;8.10;92.80
20815;DHT22;10568;48.176;16.316;2023-03-15T09:49:26;8.20;93.50
20815;DHT22;10568;48.176;16.316;2023-03-15T09:52:01;8.00;93.00
20815;DHT22;10568;48.176;16.316;2023-03-15T09:54:48;8.30;92.30
20815;DHT22;10568;48.176;16.316;2023-03-15T10:00:00;8.50;92.00
20815;DHT22;10568;48.176;16.316;2023-03-15T10:02:30;8.30;90.50
20815;DHT22;10568;48.176;16.316;2023-03-15T10:05:15;8.10;90.80
20815;DHT22;10568;48.176;16.316;2023-03-15T10:07:43;8.00;90.70
20815;DHT22;10568;48.176;16.316;2023-03-15T10:10:24;8.00;90.80
20815;DHT22;10568;48.176;16.316;2023-03-15T10:16:11;8.10;90.70
20815;DHT22;10568;48.176;16.316;2023-03-15T10:19:01;8.00;90.80
20815;DHT22;10568;48.176;16.316;2023-03-15T10:24:19;8.00;91.90
20815;DHT22;10568;48.176;16.316;2023-03-15T10:26:46;8.70;91.30
20815;DHT22;10568;48.176;16.316;2023-03-15T10:29:15;8.90;90.40
20815;DHT22;10568;48.176;16.316;2023-03-15T10:31:43;9.50;92.90
20815;DHT22;10568;48.176;16.316;2023-03-15T10:34:15;9.70;87.40
20815;DHT22;10568;48.176;16.316;2023-03-15T10:36:48;10.00;89.60
20815;DHT22;10568;48.176;16.316;2023-03-15T10:39:15;9.90;87.30
20815;DHT22;10568;48.176;16.316;2023-03-15T10:41:46;10.00;87.60
20815;DHT22;10568;48.176;16.316;2023-03-15T10:44:19;9.80;88.10
20815;DHT22;10568;48.176;16.316;2023-03-15T10:49:38;9.60;88.30
20815;DHT22;10568;48.176;16.316;2023-03-15T10:52:04;9.90;87.00
20815;DHT22;10568;48.176;16.316;2023-03-15T10:54:32;9.80;87.10
20815;DHT22;10568;48.176;16.316;2023-03-15T10:57:05;10.10;85.10
20815;DHT22;10568;48.176;16.316;2023-03-15T10:59:37;10.20;85.90
20815;DHT22;10568;48.176;16.316;2023-03-15T11:02:21;10.60;84.10
20815;DHT22;10568;48.176;16.316;2023-03-15T11:04:59;11.00;82.30
20815;DHT22;10568;48.176;16.316;2023-03-15T11:07:26;11.00;81.00
20815;DHT22;10568;48.176;16.316;2023-03-15T11:09:55;11.10;79.00
20815;DHT22;10568;48.176;16.316;2023-03-15T11:12:25;10.80;79.40
20815;DHT22;10568;48.176;16.316;2023-03-15T11:14:56;11.00;81.20
20815;DHT22;10568;48.176;16.316;2023-03-15T11:17:29;10.60;79.00
20815;DHT22;10568;48.176;16.316;2023-03-15T11:19:58;10.60;78.50
20815;DHT22;10568;48.176;16.316;2023-03-15T11:22:25;10.40;77.00
20815;DHT22;10568;48.176;16.316;2023-03-15T11:24:52;10.30;78.50
20815;DHT22;10568;48.176;16.316;2023-03-15T11:27:22;9.90;79.90
20815;DHT22;10568;48.176;16.316;2023-03-15T11:29:51;9.80;77.70
20815;DHT22;10568;48.176;16.316;2023-03-15T11:32:21;9.90;81.10
20815;DHT22;10568;48.176;16.316;2023-03-15T11:37:40;9.80;78.80
20815;DHT22;10568;48.176;16.316;2023-03-15T11:40:29;9.90;79.10
20815;DHT22;10568;48.176;16.316;2023-03-15T11:45:43;10.10;78.10
20815;DHT22;10568;48.176;16.316;2023-03-15T11:48:25;10.00;77.50
20815;DHT22;10568;48.176;16.316;2023-03-15T11:51:01;9.70;77.60
20815;DHT22;10568;48.176;16.316;2023-03-15T11:53:37;9.90;77.70
20815;DHT22;10568;48.176;16.316;2023-03-15T12:01:33;10.00;79.30
20815;DHT22;10568;48.176;16.316;2023-03-15T12:06:59;9.80;78.70
20815;DHT22;10568;48.176;16.316;2023-03-15T12:12:05;10.20;78.30
20815;DHT22;10568;48.176;16.316;2023-03-15T12:19:59;10.90;78.10
20815;DHT22;10568;48.176;16.316;2023-03-15T12:22:31;10.60;74.90
20815;DHT22;10568;48.176;16.316;2023-03-15T12:29:10;10.90;76.10
20815;DHT22;10568;48.176;16.316;2023-03-15T12:31:12;10.90;76.80
20815;DHT22;10568;48.176;16.316;2023-03-15T12:33:51;10.80;74.90
20815;DHT22;10568;48.176;16.316;2023-03-15T12:41:45;10.60;73.10
20815;DHT22;10568;48.176;16.316;2023-03-15T12:57:28;11.90;69.60
20815;DHT22;10568;48.176;16.316;2023-03-15T13:00:00;11.70;70.70
20815;DHT22;10568;48.176;16.316;2023-03-15T13:02:34;11.50;71.10
20815;DHT22;10568;48.176;16.316;2023-03-15T13:07:40;12.10;71.00
20815;DHT22;10568;48.176;16.316;2023-03-15T13:13:06;11.80;72.20
20815;DHT22;10568;48.176;16.316;2023-03-15T13:15:43;11.60;69.50
20815;DHT22;10568;48.176;16.316;2023-03-15T13:18:17;11.30;69.00
20815;DHT22;10568;48.176;16.316;2023-03-15T13:23:28;11.50;69.80
20815;DHT22;10568;48.176;16.316;2023-03-15T13:26:20;11.40;70.50
20815;DHT22;10568;48.176;16.316;2023-03-15T13:29:00;11.40;69.60
20815;DHT22;10568;48.176;16.316;2023-03-15T13:31:28;11.30;71.00
20815;DHT22;10568;48.176;16.316;2023-03-15T13:33:56;11.00;70.00
20815;DHT22;10568;48.176;16.316;2023-03-15T13:36:27;10.80;70.50
20815;DHT22;10568;48.176;16.316;2023-03-15T13:39:29;10.70;72.20
20815;DHT22;10568;48.176;16.316;2023-03-15T13:41:59;10.60;70.90
20815;DHT22;10568;48.176;16.316;2023-03-15T13:44:26;10.60;70.20
20815;DHT22;10568;48.176;16.316;2023-03-15T13:46:54;10.30;67.80
20815;DHT22;10568;48.176;16.316;2023-03-15T13:49:20;10.40;67.70
20815;DHT22;10568;48.176;16.316;2023-03-15T13:51:48;10.30;69.30
20815;DHT22;10568;48.176;16.316;2023-03-15T13:54:27;10.30;69.30
20815;DHT22;10568;48.176;16.316;2023-03-15T13:57:15;10.40;71.80
20815;DHT22;10568;48.176;16.316;2023-03-15T13:59:45;10.80;74.70
20815;DHT22;10568;48.176;16.316;2023-03-15T14:02:21;10.90;78.00
20815;DHT22;10568;48.176;16.316;2023-03-15T14:04:57;11.00;78.00
20815;DHT22;10568;48.176;16.316;2023-03-15T14:07:39;10.80;68.90
20815;DHT22;10568;48.176;16.316;2023-03-15T14:10:07;11.10;69.70
20815;DHT22;10568;48.176;16.316;2023-03-15T14:12:33;11.40;68.60
20815;DHT22;10568;48.176;16.316;2023-03-15T14:14:59;11.70;72.70
20815;DHT22;10568;48.176;16.316;2023-03-15T14:17:30;12.00;78.40
20815;DHT22;10568;48.176;16.316;2023-03-15T14:20:05;11.90;72.50
20815;DHT22;10568;48.176;16.316;2023-03-15T14:22:34;11.60;69.00
20815;DHT22;10568;48.176;16.316;2023-03-15T14:25:01;11.40;69.70
20815;DHT22;10568;48.176;16.316;2023-03-15T14:27:28;11.10;67.10
20815;DHT22;10568;48.176;16.316;2023-03-15T14:30:02;10.70;67.60
20815;DHT22;10568;48.176;16.316;2023-03-15T14:32:34;10.70;67.10
20815;DHT22;10568;48.176;16.316;2023-03-15T14:35:20;10.50;66.10
20815;DHT22;10568;48.176;16.316;2023-03-15T14:37:46;10.50;66.70
20815;DHT22;10568;48.176;16.316;2023-03-15T14:40:17;10.40;64.60
20815;DHT22;10568;48.176;16.316;2023-03-15T14:42:46;10.30;64.40
20815;DHT22;10568;48.176;16.316;2023-03-15T14:45:12;10.10;65.30
20815;DHT22;10568;48.176;16.316;2023-03-15T14:47:45;9.80;64.90
20815;DHT22;10568;48.176;16.316;2023-03-15T14:50:18;9.80;66.40
20815;DHT22;10568;48.176;16.316;2023-03-15T14:52:46;9.70;66.80
20815;DHT22;10568;48.176;16.316;2023-03-15T14:55:17;9.50;68.20
20815;DHT22;10568;48.176;16.316;2023-03-15T14:57:44;9.40;67.00
20815;DHT22;10568;48.176;16.316;2023-03-15T15:02:47;9.20;66.60
20815;DHT22;10568;48.176;16.316;2023-03-15T15:05:25;9.20;69.20
20815;DHT22;10568;48.176;16.316;2023-03-15T15:07:52;9.10;68.10
20815;DHT22;10568;48.176;16.316;2023-03-15T15:10:23;9.20;67.80
20815;DHT22;10568;48.176;16.316;2023-03-15T15:12:49;9.20;68.00
20815;DHT22;10568;48.176;16.316;2023-03-15T15:15:19;9.30;68.50
20815;DHT22;10568;48.176;16.316;2023-03-15T15:18:04;9.40;67.30
20815;DHT22;10568;48.176;16.316;2023-03-15T15:20:30;9.30;67.40
20815;DHT22;10568;48.176;16.316;2023-03-15T15:22:55;9.20;66.90
20815;DHT22;10568;48.176;16.316;2023-03-15T15:25:22;9.20;67.10
20815;DHT22;10568;48.176;16.316;2023-03-15T15:27:49;9.00;66.60
20815;DHT22;10568;48.176;16.316;2023-03-15T15:30:20;9.10;66.60
20815;DHT22;10568;48.176;16.316;2023-03-15T15:33:02;9.10;67.10
20815;DHT22;10568;48.176;16.316;2023-03-15T15:35:27;9.10;67.70
20815;DHT22;10568;48.176;16.316;2023-03-15T15:37:54;9.00;67.30
20815;DHT22;10568;48.176;16.316;2023-03-15T15:40:26;9.00;66.90
20815;DHT22;10568;48.176;16.316;2023-03-15T15:42:52;8.90;66.00
20815;DHT22;10568;48.176;16.316;2023-03-15T15:45:19;8.80;66.40
20815;DHT22;10568;48.176;16.316;2023-03-15T15:47:45;8.70;66.20
20815;DHT22;10568;48.176;16.316;2023-03-15T15:50:15;8.70;65.40
20815;DHT22;10568;48.176;16.316;2023-03-15T15:52:47;8.60;66.40
20815;DHT22;10568;48.176;16.316;2023-03-15T15:55:17;8.50;67.50
20815;DHT22;10568;48.176;16.316;2023-03-15T15:57:47;8.40;67.70
20815;DHT22;10568;48.176;16.316;2023-03-15T16:00:16;8.30;69.40
20815;DHT22;10568;48.176;16.316;2023-03-15T16:02:44;8.20;74.20
20815;DHT22;10568;48.176;16.316;2023-03-15T16:05:10;8.10;69.10
20815;DHT22;10568;48.176;16.316;2023-03-15T16:07:37;8.00;70.90
20815;DHT22;10568;48.176;16.316;2023-03-15T16:10:06;8.00;69.90
20815;DHT22;10568;48.176;16.316;2023-03-15T16:12:32;7.90;70.50
20815;DHT22;10568;48.176;16.316;2023-03-15T16:14:59;7.80;70.40
20815;DHT22;10568;48.176;16.316;2023-03-15T16:17:25;7.80;71.00
20815;DHT22;10568;48.176;16.316;2023-03-15T16:19:52;7.80;71.50
20815;DHT22;10568;48.176;16.316;2023-03-15T16:22:22;7.70;71.10
20815;DHT22;10568;48.176;16.316;2023-03-15T16:24:52;7.70;72.00
20815;DHT22;10568;48.176;16.316;2023-03-15T16:27:23;7.60;73.20
20815;DHT22;10568;48.176;16.316;2023-03-15T16:29:53;7.50;74.70
20815;DHT22;10568;48.176;16.316;2023-03-15T16:32:22;7.40;77.00
20815;DHT22;10568;48.176;16.316;2023-03-15T16:34:51;7.30;80.30
20815;DHT22;10568;48.176;16.316;2023-03-15T16:37:21;7.20;82.90
20815;DHT22;10568;48.176;16.316;2023-03-15T16:39:49;7.20;84.90
20815;DHT22;10568;48.176;16.316;2023-03-15T16:42:17;7.10;86.00
20815;DHT22;10568;48.176;16.316;2023-03-15T16:44:43;7.00;87.80
20815;DHT22;10568;48.176;16.316;2023-03-15T16:47:09;6.90;88.00
20815;DHT22;10568;48.176;16.316;2023-03-15T16:49:37;6.90;88.70
20815;DHT22;10568;48.176;16.316;2023-03-15T16:52:04;6.80;89.50
20815;DHT22;10568;48.176;16.316;2023-03-15T16:54:33;6.80;90.00
20815;DHT22;10568;48.176;16.316;2023-03-15T16:56:59;6.70;90.40
20815;DHT22;10568;48.176;16.316;2023-03-15T16:59:27;6.70;90.50